메인 페이지
METAR-TAF:

METAR-TAF

공항 :

튀니스 카르타고 국제공항

튀니스, 튀니지

위도: 36-50N, 경도: 010-14E, 고도: 3m

현재 날씨관측

예보는 27분 전, 03:00시(UTC)에 발표되었습니다.
무풍
온도 24°C
습도 74%
기압 1014 hPa
시정 10km 이상
고도 3300ft 상공 구름 조금

METAR: DTTA 170300Z 00000KT 9999 FEW033 24/19 Q1014

시각: 04:27 (03:27 UTC)

예보

예보는 4 시간 27분 전, 23:00시(UTC)에 발표되었습니다.
예보 대상 시간: 17일 00시부터 17일 24시까지 (UTC)
서남서3kt
시정 10km 이상
고도 2600ft 상공 구름 조금
확률 30% :
일시적
17일 14시부터 17일 20시까지 (UTC)
여러 방향의 바람 20kt, 순간 최대 풍속 30kt
시정: 4000m
고도 3000ft 상공 구름 조금, 적란운.
뇌우, 비

TAF: DTTA 162300Z 1700/1724 25003KT 9999 FEW026 PROB30 TEMPO 1714/1720 VRB20G30KT 4000 TS RA FEW030CB

4,000개 이상의 공항 관측 자료 및 예보 (METAR 및 TAF 보고).

지도상에서 검색 가능한 기상관측소가 노란 점과 빨간 점으로 표시되어 있습니다.

기상관측소 명을 보려면 표시 위로 마우스를 이동하세요.

날씨 관측과 예보를 보려면 클릭하세요.

지도 변경 : 확대하려면 엑스 표시가 있는 녹색 버튼, 축소하려면 빼기 표시가 있는 녹색 버튼, 다음 페이지의 지도를 보려면 녹색 화살표를 클릭하세요.


METAR-TAF: